Time;durP1;ratioP1;P1;durP2;ratioP2;P2;SDS_P1;SDS_P2;PMS_P1;PMS_P2;Temp;Humidity;BMP_temperature;BMP_pressure;BME280_temperature;BME280_humidity;BME280_pressure;Samples;Min_cycle;Max_cycle;Signal;HPM_P1;HPM_P2
2022/04/14 00:01:44;;;;;;;12.52;8.40;;;;;;;;;;5024990;28;20049;-63
2022/04/14 00:04:10;;;;;;;18.00;9.63;;;;;;;;;;5024679;28;20405;-63
2022/04/14 00:06:37;;;;;;;14.90;8.95;;;;;;;;;;5005369;28;20050;-63
2022/04/14 00:09:03;;;;;;;16.38;9.38;;;;;;;;;;5005146;28;20042;-63
2022/04/14 00:11:29;;;;;;;14.98;9.50;;;;;;;;;;5005479;28;20050;-64
2022/04/14 00:13:55;;;;;;;21.35;9.82;;;;;;;;;;5005305;28;20052;-63
2022/04/14 00:16:22;;;;;;;16.90;9.57;;;;;;;;;;5021516;28;20037;-64
2022/04/14 00:18:48;;;;;;;17.92;10.27;;;;;;;;;;5024771;28;20075;-63
2022/04/14 00:21:14;;;;;;;15.48;9.43;;;;;;;;;;5024902;28;20466;-63
2022/04/14 00:23:40;;;;;;;15.00;9.43;;;;;;;;;;5024992;28;20056;-63
2022/04/14 00:26:07;;;;;;;18.25;10.20;;;;;;;;;;5024569;28;20066;-63
2022/04/14 00:28:33;;;;;;;15.95;10.05;;;;;;;;;;5024829;28;20081;-63
2022/04/14 00:30:59;;;;;;;17.17;10.73;;;;;;;;;;5024454;28;20057;-63
2022/04/14 00:33:26;;;;;;;14.05;9.30;;;;;;;;;;5024469;28;20441;-63
2022/04/14 00:35:52;;;;;;;17.17;10.82;;;;;;;;;;5024357;28;20046;-63
2022/04/14 00:38:18;;;;;;;21.60;11.68;;;;;;;;;;5006682;28;20125;-63
2022/04/14 00:40:45;;;;;;;19.60;10.75;;;;;;;;;;5024600;28;20125;-63
2022/04/14 00:43:11;;;;;;;19.73;10.82;;;;;;;;;;5024587;28;20097;-64
2022/04/14 00:45:37;;;;;;;16.95;11.38;;;;;;;;;;5024362;28;20551;-62
2022/04/14 00:48:03;;;;;;;20.15;11.23;;;;;;;;;;5024410;28;20057;-63
2022/04/14 00:50:29;;;;;;;20.55;12.57;;;;;;;;;;5024214;28;20076;-63
2022/04/14 00:52:55;;;;;;;18.38;11.05;;;;;;;;;;5024530;28;20042;-63
2022/04/14 00:55:21;;;;;;;18.98;12.23;;;;;;;;;;5023537;28;20088;-63
2022/04/14 00:57:48;;;;;;;15.02;11.35;;;;;;;;;;5024502;28;20046;-63
2022/04/14 01:00:14;;;;;;;23.38;12.40;;;;;;;;;;5024263;28;20050;-63
2022/04/14 01:02:40;;;;;;;24.55;13.57;;;;;;;;;;5024220;28;20096;-62
2022/04/14 01:05:07;;;;;;;15.70;11.45;;;;;;;;;;5024262;28;20109;-63
2022/04/14 01:07:36;;;;;;;20.17;12.80;;;;;;;;;;5024389;28;20042;-63
2022/04/14 01:10:04;;;;;;;21.27;12.73;;;;;;;;;;5024470;28;20495;-63
2022/04/14 01:12:31;;;;;;;20.75;12.23;;;;;;;;;;5024348;28;20057;-63
2022/04/14 01:14:57;;;;;;;28.30;13.82;;;;;;;;;;5024190;28;20120;-63
2022/04/14 01:17:23;;;;;;;19.63;12.63;;;;;;;;;;5024031;28;20120;-63
2022/04/14 01:19:49;;;;;;;19.75;12.25;;;;;;;;;;5024512;28;20076;-63
2022/04/14 01:22:28;;;;;;;22.08;13.50;;;;;;;;;;5024467;28;20049;-63
2022/04/14 01:24:58;;;;;;;19.95;13.82;;;;;;;;;;5024293;28;20056;-63
2022/04/14 01:27:25;;;;;;;23.88;13.65;;;;;;;;;;5024314;28;20566;-64
2022/04/14 01:29:52;;;;;;;22.40;14.02;;;;;;;;;;5023606;28;20054;-63
2022/04/14 01:32:21;;;;;;;19.40;13.93;;;;;;;;;;5023904;28;20112;-63
2022/04/14 01:34:49;;;;;;;19.02;14.23;;;;;;;;;;5024169;28;20164;-63
2022/04/14 01:37:15;;;;;;;20.83;14.45;;;;;;;;;;5023998;28;20061;-62
2022/04/14 01:39:41;;;;;;;24.08;14.90;;;;;;;;;;5024370;28;20045;-63
2022/04/14 01:42:08;;;;;;;22.80;14.65;;;;;;;;;;5024209;28;20065;-63
2022/04/14 01:44:34;;;;;;;25.10;14.43;;;;;;;;;;5024225;28;20452;-65
2022/04/14 01:47:00;;;;;;;25.02;15.35;;;;;;;;;;5023666;28;20046;-62
2022/04/14 01:49:27;;;;;;;23.98;16.23;;;;;;;;;;5025082;28;20460;-63
2022/04/14 01:51:53;;;;;;;26.45;15.68;;;;;;;;;;5027440;28;20068;-63
2022/04/14 01:54:19;;;;;;;31.75;16.55;;;;;;;;;;5027521;28;20041;-63
2022/04/14 01:56:46;;;;;;;28.58;16.60;;;;;;;;;;5009786;28;20052;-63
2022/04/14 01:59:12;;;;;;;26.33;18.17;;;;;;;;;;5027343;28;20088;-63
2022/04/14 02:01:38;;;;;;;24.48;16.10;;;;;;;;;;5027127;28;20111;-62
2022/04/14 02:04:07;;;;;;;33.45;16.20;;;;;;;;;;5026921;28;20042;-63
2022/04/14 02:06:33;;;;;;;28.63;17.73;;;;;;;;;;5027165;28;20049;-63
2022/04/14 02:08:59;;;;;;;27.92;17.92;;;;;;;;;;5026901;28;20056;-63
2022/04/14 02:11:25;;;;;;;28.17;17.35;;;;;;;;;;5009644;28;20125;-63
2022/04/14 02:13:51;;;;;;;28.50;18.23;;;;;;;;;;5026908;28;20053;-63
2022/04/14 02:16:17;;;;;;;35.35;19.98;;;;;;;;;;5027019;28;20461;-63
2022/04/14 02:18:44;;;;;;;35.58;19.67;;;;;;;;;;5027074;28;20124;-63
2022/04/14 02:21:10;;;;;;;34.85;19.13;;;;;;;;;;5027030;28;20057;-63
2022/04/14 02:23:36;;;;;;;34.78;20.13;;;;;;;;;;5026855;28;20046;-63
2022/04/14 02:26:02;;;;;;;29.33;18.50;;;;;;;;;;5026796;28;20048;-63
2022/04/14 02:28:28;;;;;;;35.25;20.38;;;;;;;;;;5026846;28;20046;-62
2022/04/14 02:30:54;;;;;;;39.70;22.90;;;;;;;;;;5024464;28;20054;-64
2022/04/14 02:33:20;;;;;;;37.63;19.77;;;;;;;;;;5026371;28;20045;-63
2022/04/14 02:35:46;;;;;;;30.88;19.65;;;;;;;;;;5026527;28;20046;-63
2022/04/14 02:38:13;;;;;;;41.38;21.65;;;;;;;;;;5026817;28;20069;-63
2022/04/14 02:40:39;;;;;;;38.03;23.73;;;;;;;;;;5026453;28;20073;-63
2022/04/14 02:43:05;;;;;;;38.50;22.38;;;;;;;;;;5026069;28;20444;-63
2022/04/14 02:45:31;;;;;;;39.83;23.45;;;;;;;;;;5016763;28;20050;-63
2022/04/14 02:47:57;;;;;;;37.30;22.73;;;;;;;;;;5026461;28;20054;-63
2022/04/14 02:50:24;;;;;;;40.17;22.45;;;;;;;;;;5026477;28;20085;-62
2022/04/14 02:52:50;;;;;;;35.55;23.45;;;;;;;;;;5026348;28;20447;-63
2022/04/14 02:55:17;;;;;;;37.28;23.05;;;;;;;;;;5008837;28;20039;-63
2022/04/14 02:57:44;;;;;;;35.70;23.63;;;;;;;;;;5026304;28;20121;-62
2022/04/14 03:00:10;;;;;;;37.10;23.02;;;;;;;;;;5026281;28;20103;-63
2022/04/14 03:02:37;;;;;;;43.70;24.40;;;;;;;;;;5025787;28;20377;-63
2022/04/14 03:05:04;;;;;;;44.22;23.80;;;;;;;;;;5026051;28;20053;-63
2022/04/14 03:07:30;;;;;;;40.67;26.13;;;;;;;;;;5026134;28;20076;-63
2022/04/14 03:09:56;;;;;;;41.25;27.40;;;;;;;;;;5025928;28;20053;-63
2022/04/14 03:12:22;;;;;;;39.78;25.33;;;;;;;;;;5025953;28;20049;-63
2022/04/14 03:14:49;;;;;;;42.88;26.58;;;;;;;;;;5025988;28;20046;-63
2022/04/14 03:17:15;;;;;;;49.97;29.65;;;;;;;;;;5025951;28;20190;-63
2022/04/14 03:19:41;;;;;;;47.22;28.48;;;;;;;;;;5025970;28;20056;-63
2022/04/14 03:22:07;;;;;;;42.35;29.35;;;;;;;;;;5025845;28;20050;-63
2022/04/14 03:24:33;;;;;;;50.85;29.52;;;;;;;;;;5025551;28;20044;-63
2022/04/14 03:26:59;;;;;;;46.97;28.83;;;;;;;;;;5025798;28;20061;-63
2022/04/14 03:29:28;;;;;;;45.40;30.60;;;;;;;;;;5025757;28;20080;-63
2022/04/14 03:31:54;;;;;;;46.72;30.73;;;;;;;;;;5025393;28;20062;-62
2022/04/14 03:34:20;;;;;;;46.03;29.83;;;;;;;;;;5025753;28;20072;-62
2022/04/14 03:36:46;;;;;;;50.03;30.20;;;;;;;;;;5025476;28;20486;-62
2022/04/14 03:39:12;;;;;;;59.22;34.33;;;;;;;;;;5025482;28;20069;-63
2022/04/14 03:41:39;;;;;;;51.45;31.10;;;;;;;;;;5025458;28;20042;-62
2022/04/14 03:44:05;;;;;;;54.15;32.00;;;;;;;;;;5025733;28;20046;-63
2022/04/14 03:46:31;;;;;;;53.15;33.15;;;;;;;;;;5025343;28;20042;-63
2022/04/14 03:48:58;;;;;;;57.50;34.00;;;;;;;;;;5025207;28;20050;-63
2022/04/14 03:51:25;;;;;;;56.50;34.15;;;;;;;;;;5025383;28;20053;-64
2022/04/14 03:53:52;;;;;;;57.40;32.90;;;;;;;;;;5025267;28;20048;-63
2022/04/14 03:56:18;;;;;;;56.97;35.25;;;;;;;;;;5024763;28;20065;-62
2022/04/14 03:58:44;;;;;;;53.28;32.28;;;;;;;;;;5025172;28;20072;-62
2022/04/14 04:01:10;;;;;;;57.28;34.67;;;;;;;;;;5024837;28;20042;-63
2022/04/14 04:03:36;;;;;;;58.78;34.88;;;;;;;;;;5025097;28;20076;-63
2022/04/14 04:06:02;;;;;;;54.30;34.22;;;;;;;;;;5025176;28;20045;-62
2022/04/14 04:08:28;;;;;;;68.45;36.00;;;;;;;;;;5024992;28;20053;-63
2022/04/14 04:10:55;;;;;;;64.30;38.35;;;;;;;;;;5024727;28;20052;-62
2022/04/14 04:13:21;;;;;;;64.35;39.53;;;;;;;;;;5024513;28;20046;-63
2022/04/14 04:15:47;;;;;;;71.78;40.00;;;;;;;;;;5024795;28;20052;-63
2022/04/14 04:18:13;;;;;;;69.00;38.80;;;;;;;;;;5024841;28;20049;-63
2022/04/14 04:20:39;;;;;;;69.07;40.15;;;;;;;;;;5024969;28;20048;-63
2022/04/14 04:23:05;;;;;;;68.88;43.28;;;;;;;;;;5024903;28;20046;-63
2022/04/14 04:25:32;;;;;;;69.85;40.85;;;;;;;;;;5024892;28;20045;-62
2022/04/14 04:27:58;;;;;;;74.22;42.85;;;;;;;;;;5025003;28;20112;-63
2022/04/14 04:30:25;;;;;;;63.17;39.53;;;;;;;;;;5006571;28;20058;-63
2022/04/14 04:32:51;;;;;;;73.10;41.47;;;;;;;;;;4988873;28;20050;-63
2022/04/14 04:35:17;;;;;;;71.05;40.97;;;;;;;;;;5004797;28;20046;-63
2022/04/14 04:37:43;;;;;;;69.78;43.22;;;;;;;;;;5005126;28;20092;-63
2022/04/14 04:40:09;;;;;;;77.32;43.03;;;;;;;;;;5004925;28;20437;-63
2022/04/14 04:42:35;;;;;;;77.47;45.08;;;;;;;;;;5005306;28;20074;-63
2022/04/14 04:45:02;;;;;;;73.05;44.65;;;;;;;;;;5004984;28;20074;-64
2022/04/14 04:47:28;;;;;;;78.60;44.17;;;;;;;;;;4986968;28;20056;-63
2022/04/14 04:49:54;;;;;;;73.57;44.22;;;;;;;;;;5004987;28;20046;-62
2022/04/14 04:52:20;;;;;;;76.03;44.17;;;;;;;;;;5004850;28;20052;-62
2022/04/14 04:54:46;;;;;;;76.55;45.17;;;;;;;;;;5004738;28;20417;-63
2022/04/14 04:57:12;;;;;;;88.03;45.88;;;;;;;;;;5004796;28;20104;-63
2022/04/14 04:59:38;;;;;;;90.68;48.80;;;;;;;;;;5004899;28;20053;-63
2022/04/14 05:02:04;;;;;;;87.13;48.05;;;;;;;;;;5004459;28;20046;-63
2022/04/14 05:04:30;;;;;;;88.97;50.30;;;;;;;;;;5004875;28;20042;-63
2022/04/14 05:06:56;;;;;;;87.72;48.85;;;;;;;;;;5005014;28;20117;-63
2022/04/14 05:09:24;;;;;;;95.78;54.50;;;;;;;;;;5004301;28;20042;-63
2022/04/14 05:11:50;;;;;;;87.40;51.55;;;;;;;;;;5004981;28;20054;-62
2022/04/14 05:14:16;;;;;;;87.05;48.78;;;;;;;;;;5004910;28;20053;-64
2022/04/14 05:16:42;;;;;;;87.90;49.05;;;;;;;;;;5004637;28;20053;-62
2022/04/14 05:19:08;;;;;;;91.45;51.67;;;;;;;;;;5004738;28;20057;-63
2022/04/14 05:21:34;;;;;;;84.82;49.95;;;;;;;;;;5004899;28;20046;-62
2022/04/14 05:24:00;;;;;;;81.20;48.78;;;;;;;;;;5005283;28;20201;-63
2022/04/14 05:26:27;;;;;;;85.65;49.38;;;;;;;;;;5008369;28;20057;-63
2022/04/14 05:28:53;;;;;;;77.38;47.63;;;;;;;;;;5008348;28;20144;-63
2022/04/14 05:31:21;;;;;;;78.60;46.97;;;;;;;;;;5012162;28;20056;-63
2022/04/14 05:33:48;;;;;;;73.38;44.45;;;;;;;;;;5024994;28;20073;-62
2022/04/14 05:36:14;;;;;;;78.20;46.83;;;;;;;;;;5026974;28;20042;-63
2022/04/14 05:38:40;;;;;;;78.18;45.75;;;;;;;;;;5026210;28;20046;-63
2022/04/14 05:41:08;;;;;;;81.35;43.05;;;;;;;;;;5027127;28;20046;-63
2022/04/14 05:43:34;;;;;;;;;;;;;;;;;;5019487;28;20068;-62
2022/04/14 05:46:01;;;;;;;63.33;38.50;;;;;;;;;;5025589;28;19961;-63
2022/04/14 05:48:27;;;;;;;75.72;38.55;;;;;;;;;;5023718;28;20042;-64
2022/04/14 05:50:54;;;;;;;65.47;39.65;;;;;;;;;;5025831;28;20041;-63
2022/04/14 05:53:25;;;;;;;58.08;35.53;;;;;;;;;;5024689;28;20065;-62
2022/04/14 05:55:52;;;;;;;61.35;36.03;;;;;;;;;;5024703;28;20042;-61
2022/04/14 05:58:18;;;;;;;58.15;35.30;;;;;;;;;;5026374;28;20049;-61
2022/04/14 06:00:44;;;;;;;54.83;34.35;;;;;;;;;;5025386;28;20378;-62
2022/04/14 06:03:11;;;;;;;56.83;34.83;;;;;;;;;;5025873;28;20473;-61
2022/04/14 06:05:37;;;;;;;49.40;33.78;;;;;;;;;;5026836;28;20096;-62
2022/04/14 06:08:03;;;;;;;57.80;34.20;;;;;;;;;;5025469;28;20099;-61
2022/04/14 06:10:30;;;;;;;59.72;34.78;;;;;;;;;;5021958;28;20077;-61
2022/04/14 06:12:56;;;;;;;67.10;35.15;;;;;;;;;;5024942;28;20038;-61
2022/04/14 06:15:22;;;;;;;53.50;33.72;;;;;;;;;;5024596;28;20038;-62
2022/04/14 06:17:49;;;;;;;53.13;33.35;;;;;;;;;;5025108;28;20620;-61
2022/04/14 06:20:15;;;;;;;54.25;32.33;;;;;;;;;;5025695;28;20088;-62
2022/04/14 06:22:43;;;;;;;48.67;30.58;;;;;;;;;;5026708;28;20046;-62
2022/04/14 06:25:13;;;;;;;50.55;30.83;;;;;;;;;;5026879;28;20042;-61
2022/04/14 06:27:40;;;;;;;49.05;31.63;;;;;;;;;;5026971;28;20046;-61
2022/04/14 06:30:08;;;;;;;53.07;31.67;;;;;;;;;;5026307;28;20050;-62
2022/04/14 06:32:35;;;;;;;53.55;33.03;;;;;;;;;;5026242;28;20061;-62
2022/04/14 06:35:01;;;;;;;55.50;30.38;;;;;;;;;;5025758;28;20046;-62
2022/04/14 06:37:27;;;;;;;52.70;30.65;;;;;;;;;;5025021;28;20081;-61
2022/04/14 06:39:53;;;;;;;51.33;30.05;;;;;;;;;;5026804;28;20050;-63
2022/04/14 06:42:22;;;;;;;50.58;28.92;;;;;;;;;;5026533;28;20132;-61
2022/04/14 06:44:49;;;;;;;38.05;24.63;;;;;;;;;;5026666;28;20049;-61
2022/04/14 06:47:15;;;;;;;44.92;26.45;;;;;;;;;;5007739;28;20050;-61
2022/04/14 06:49:41;;;;;;;38.38;25.10;;;;;;;;;;5024823;28;20106;-62
2022/04/14 06:52:07;;;;;;;35.92;24.23;;;;;;;;;;5017393;28;20046;-61
2022/04/14 06:54:34;;;;;;;37.47;23.38;;;;;;;;;;5022750;28;20046;-61
2022/04/14 06:57:00;;;;;;;36.13;23.85;;;;;;;;;;5007523;28;20118;-61
2022/04/14 06:59:27;;;;;;;31.20;21.30;;;;;;;;;;5025510;28;20069;-61
2022/04/14 07:01:53;;;;;;;30.10;19.80;;;;;;;;;;5026254;28;20505;-61
2022/04/14 07:04:20;;;;;;;31.60;23.17;;;;;;;;;;5023763;28;20087;-61
2022/04/14 07:06:46;;;;;;;34.72;21.95;;;;;;;;;;5026090;28;20097;-62
2022/04/14 07:09:13;;;;;;;33.33;22.08;;;;;;;;;;5026103;28;20042;-61
2022/04/14 07:11:39;;;;;;;38.42;22.02;;;;;;;;;;5026169;28;20053;-62
2022/04/14 07:14:05;;;;;;;29.30;20.50;;;;;;;;;;5025820;28;20042;-61
2022/04/14 07:16:31;;;;;;;29.58;20.95;;;;;;;;;;5025562;28;20105;-61
2022/04/14 07:18:57;;;;;;;30.27;19.92;;;;;;;;;;5025018;28;20053;-62
2022/04/14 07:21:24;;;;;;;33.33;19.90;;;;;;;;;;5014049;28;20497;-62
2022/04/14 07:23:50;;;;;;;34.70;20.60;;;;;;;;;;5016651;28;20052;-62
2022/04/14 07:26:16;;;;;;;25.98;18.92;;;;;;;;;;5025745;28;20058;-62
2022/04/14 07:28:42;;;;;;;32.20;21.30;;;;;;;;;;5009524;28;20092;-62
2022/04/14 07:31:08;;;;;;;32.38;21.33;;;;;;;;;;5021085;28;20080;-62
2022/04/14 07:33:36;;;;;;;30.13;20.42;;;;;;;;;;5024855;28;20121;-62
2022/04/14 07:36:02;;;;;;;31.88;22.33;;;;;;;;;;5025655;28;20060;-62
2022/04/14 07:38:28;;;;;;;25.88;19.80;;;;;;;;;;5025519;28;20049;-62
2022/04/14 07:40:58;;;;;;;26.02;20.10;;;;;;;;;;5025265;28;20041;-62
2022/04/14 07:43:24;;;;;;;24.08;18.98;;;;;;;;;;5024982;28;20056;-62
2022/04/14 07:45:50;;;;;;;27.58;20.55;;;;;;;;;;5025012;28;20072;-62
2022/04/14 07:48:16;;;;;;;28.00;20.75;;;;;;;;;;5006449;28;20049;-62
2022/04/14 07:50:42;;;;;;;29.10;19.42;;;;;;;;;;5019318;28;20050;-62
2022/04/14 07:53:08;;;;;;;24.35;19.02;;;;;;;;;;5025466;28;20126;-62
2022/04/14 07:55:35;;;;;;;29.88;19.10;;;;;;;;;;5025233;28;20101;-61
2022/04/14 07:58:10;;;;;;;25.30;19.20;;;;;;;;;;5025044;28;20042;-62
2022/04/14 08:00:37;;;;;;;27.00;19.20;;;;;;;;;;5024981;28;20109;-61
2022/04/14 08:03:04;;;;;;;27.40;18.37;;;;;;;;;;5010988;28;20046;-61
2022/04/14 08:05:36;;;;;;;26.70;18.70;;;;;;;;;;5005908;28;20304;-62
2022/04/14 08:08:11;;;;;;;31.17;19.83;;;;;;;;;;5005333;28;20122;-62
2022/04/14 08:10:37;;;;;;;26.38;18.33;;;;;;;;;;5005434;28;20050;-62
2022/04/14 08:13:03;;;;;;;22.60;17.60;;;;;;;;;;5005480;28;20046;-61
2022/04/14 08:15:30;;;;;;;27.20;18.75;;;;;;;;;;5005266;28;20042;-62
2022/04/14 08:17:57;;;;;;;26.20;18.73;;;;;;;;;;5005486;28;20066;-62
2022/04/14 08:20:23;;;;;;;25.98;17.38;;;;;;;;;;5018285;28;20076;-62
2022/04/14 08:22:54;;;;;;;25.95;18.40;;;;;;;;;;5016007;28;20045;-61
2022/04/14 08:25:21;;;;;;;23.92;17.23;;;;;;;;;;5018530;28;20075;-62
2022/04/14 08:27:48;;;;;;;26.77;17.00;;;;;;;;;;5020179;28;20057;-62
2022/04/14 08:30:15;;;;;;;20.50;16.50;;;;;;;;;;5024395;28;20084;-62
2022/04/14 08:32:41;;;;;;;20.30;16.65;;;;;;;;;;5015295;28;20627;-62
2022/04/14 08:35:07;;;;;;;25.65;17.83;;;;;;;;;;5005486;28;20106;-61
2022/04/14 08:37:34;;;;;;;27.92;16.98;;;;;;;;;;5010713;28;20038;-62
2022/04/14 08:40:00;;;;;;;21.38;15.63;;;;;;;;;;5014692;28;20073;-61
2022/04/14 08:42:28;;;;;;;21.13;16.27;;;;;;;;;;5010651;28;20046;-62
2022/04/14 08:45:00;;;;;;;17.83;14.75;;;;;;;;;;5004950;28;20047;-62
2022/04/14 08:47:29;;;;;;;19.58;14.63;;;;;;;;;;5014546;28;20038;-63
2022/04/14 08:49:57;;;;;;;19.02;15.13;;;;;;;;;;5024482;28;20509;-61
2022/04/14 08:52:23;;;;;;;18.70;14.95;;;;;;;;;;5024671;28;20049;-63
2022/04/14 08:54:50;;;;;;;22.20;15.75;;;;;;;;;;5003390;28;20042;-63
2022/04/14 08:57:17;;;;;;;21.25;14.73;;;;;;;;;;5004926;28;20096;-62
2022/04/14 08:59:44;;;;;;;20.92;15.73;;;;;;;;;;5015477;28;20048;-61
2022/04/14 09:02:14;;;;;;;17.20;11.82;;;;;;;;;;5028361;28;20131;-62
2022/04/14 09:04:42;;;;;;;20.63;14.10;;;;;;;;;;5026892;28;20042;-62
2022/04/14 09:07:11;;;;;;;16.75;13.02;;;;;;;;;;5028495;28;20046;-62
2022/04/14 09:09:37;;;;;;;21.67;12.98;;;;;;;;;;5028348;28;20074;-62
2022/04/14 09:12:04;;;;;;;20.80;12.02;;;;;;;;;;5029882;28;20050;-62
2022/04/14 09:14:34;;;;;;;15.80;11.05;;;;;;;;;;5027552;28;20091;-62
2022/04/14 09:17:02;;;;;;;15.95;9.93;;;;;;;;;;5026329;28;20060;-61
2022/04/14 09:19:31;;;;;;;14.23;9.98;;;;;;;;;;5023743;28;20057;-62
2022/04/14 09:22:01;;;;;;;16.15;10.20;;;;;;;;;;5024442;28;20046;-62
2022/04/14 09:24:47;;;;;;;13.43;9.88;;;;;;;;;;5027284;28;20168;-62
2022/04/14 09:27:23;;;;;;;17.63;11.30;;;;;;;;;;5026305;28;20042;-61
2022/04/14 09:29:50;;;;;;;14.65;8.20;;;;;;;;;;5008010;28;20046;-62
2022/04/14 09:32:35;;;;;;;13.80;9.63;;;;;;;;;;5020550;28;20116;-62
2022/04/14 09:35:17;;;;;;;15.07;9.48;;;;;;;;;;5025324;28;20077;-62
2022/04/14 09:37:43;;;;;;;14.73;9.10;;;;;;;;;;5024069;28;20053;-62
2022/04/14 09:40:10;;;;;;;15.65;9.35;;;;;;;;;;5025418;28;20046;-62
2022/04/14 09:42:37;;;;;;;12.80;8.10;;;;;;;;;;5021599;28;20085;-62
2022/04/14 09:45:18;;;;;;;11.45;8.57;;;;;;;;;;5023899;28;20038;-62
2022/04/14 09:47:44;;;;;;;11.85;7.43;;;;;;;;;;5024968;28;20085;-62
2022/04/14 09:50:27;;;;;;;16.10;9.40;;;;;;;;;;5007524;28;20133;-62
2022/04/14 09:53:01;;;;;;;17.10;11.02;;;;;;;;;;5024348;28;20037;-62
2022/04/14 09:55:28;;;;;;;11.25;8.50;;;;;;;;;;5024626;28;20045;-63
2022/04/14 09:58:06;;;;;;;14.73;9.43;;;;;;;;;;5020826;28;20033;-62
2022/04/14 10:00:36;;;;;;;20.65;12.60;;;;;;;;;;5024686;28;20052;-61
2022/04/14 10:03:12;;;;;;;15.48;9.70;;;;;;;;;;5022713;28;20141;-61
2022/04/14 10:05:39;;;;;;;16.33;11.27;;;;;;;;;;5031420;28;20405;-62
2022/04/14 10:08:08;;;;;;;17.83;11.17;;;;;;;;;;5023781;28;20482;-69
2022/04/14 10:10:42;;;;;;;14.45;10.15;;;;;;;;;;5006245;28;20100;-71
2022/04/14 10:13:09;;;;;;;14.63;10.10;;;;;;;;;;5024253;28;20049;-71
2022/04/14 10:15:46;;;;;;;18.08;10.82;;;;;;;;;;5006568;28;20053;-70
2022/04/14 10:18:13;;;;;;;13.68;8.90;;;;;;;;;;5023446;28;20078;-70
2022/04/14 10:20:40;;;;;;;12.20;7.68;;;;;;;;;;5000673;28;20053;-71
2022/04/14 10:23:08;;;;;;;12.65;9.25;;;;;;;;;;5035468;28;20113;-70
2022/04/14 10:25:37;;;;;;;9.60;6.28;;;;;;;;;;5006624;28;20401;-71
2022/04/14 10:28:04;;;;;;;8.02;5.68;;;;;;;;;;5011642;28;20050;-71
2022/04/14 10:30:30;;;;;;;8.95;5.35;;;;;;;;;;5019464;28;20053;-70
2022/04/14 10:32:58;;;;;;;7.43;4.53;;;;;;;;;;5024154;28;20110;-70
2022/04/14 10:35:28;;;;;;;8.45;5.20;;;;;;;;;;5028068;28;20442;-71
2022/04/14 10:38:08;;;;;;;9.52;5.22;;;;;;;;;;5022753;28;20186;-71
2022/04/14 10:40:35;;;;;;;10.85;5.47;;;;;;;;;;5023113;28;20061;-71
2022/04/14 10:43:02;;;;;;;10.70;5.65;;;;;;;;;;5007533;28;20049;-70
2022/04/14 10:45:28;;;;;;;6.82;5.10;;;;;;;;;;5004419;28;20050;-69
2022/04/14 10:47:55;;;;;;;7.00;5.28;;;;;;;;;;5024983;28;20044;-71
2022/04/14 10:50:29;;;;;;;9.48;5.68;;;;;;;;;;5025497;28;20056;-70
2022/04/14 10:53:12;;;;;;;6.82;4.78;;;;;;;;;;5005875;28;20049;-71
2022/04/14 10:55:39;;;;;;;8.90;4.75;;;;;;;;;;5006548;28;20057;-70
2022/04/14 10:58:06;;;;;;;10.63;6.03;;;;;;;;;;5024281;28;20061;-70
2022/04/14 11:00:34;;;;;;;15.35;7.07;;;;;;;;;;5021969;28;20053;-71
2022/04/14 11:03:11;;;;;;;12.75;8.85;;;;;;;;;;5018143;28;20073;-71
2022/04/14 11:05:44;;;;;;;10.48;7.47;;;;;;;;;;5007775;28;20045;-70
2022/04/14 11:08:21;;;;;;;11.05;7.80;;;;;;;;;;5017022;28;20052;-70
2022/04/14 11:11:02;;;;;;;8.75;6.10;;;;;;;;;;5018314;28;20049;-71
2022/04/14 11:13:47;;;;;;;9.90;5.47;;;;;;;;;;5022995;28;20053;-71
2022/04/14 11:16:32;;;;;;;9.05;4.40;;;;;;;;;;5020649;28;20049;-71
2022/04/14 11:19:17;;;;;;;9.27;5.13;;;;;;;;;;5019258;28;20077;-68
2022/04/14 11:22:02;;;;;;;10.80;5.20;;;;;;;;;;5022997;28;20093;-76
2022/04/14 11:24:37;;;;;;;13.25;5.38;;;;;;;;;;5023870;28;20050;-74
2022/04/14 11:27:21;;;;;;;8.73;5.53;;;;;;;;;;5006503;28;20057;-74
2022/04/14 11:29:53;;;;;;;8.00;4.85;;;;;;;;;;5011606;28;20464;-72
2022/04/14 11:32:37;;;;;;;7.20;4.13;;;;;;;;;;5023479;28;20058;-73
2022/04/14 11:35:27;;;;;;;6.07;4.10;;;;;;;;;;5006799;28;20109;-73
2022/04/14 11:37:53;;;;;;;7.43;3.75;;;;;;;;;;5021466;28;20044;-72
2022/04/14 11:40:23;;;;;;;6.78;3.75;;;;;;;;;;5021354;28;20089;-74
2022/04/14 11:42:50;;;;;;;4.97;3.85;;;;;;;;;;5019123;28;20474;-72
2022/04/14 11:45:26;;;;;;;8.27;4.15;;;;;;;;;;5023021;28;20042;-73
2022/04/14 11:47:59;;;;;;;7.10;3.13;;;;;;;;;;5021227;28;20042;-71
2022/04/14 11:50:26;;;;;;;8.35;4.13;;;;;;;;;;5004924;28;20462;-71
2022/04/14 11:52:56;;;;;;;9.37;4.20;;;;;;;;;;5022797;28;20046;-71
2022/04/14 11:55:39;;;;;;;9.18;4.75;;;;;;;;;;5022738;28;20140;-71
2022/04/14 11:58:15;;;;;;;12.80;4.03;;;;;;;;;;5019131;28;20126;-71
2022/04/14 12:00:48;;;;;;;8.68;4.32;;;;;;;;;;5005892;28;20042;-72
2022/04/14 12:03:15;;;;;;;6.63;4.10;;;;;;;;;;5019320;28;20121;-71
2022/04/14 12:06:03;;;;;;;5.88;3.20;;;;;;;;;;5023757;28;20041;-71
2022/04/14 12:08:30;;;;;;;6.18;3.17;;;;;;;;;;5024783;28;20116;-70
2022/04/14 12:10:56;;;;;;;9.13;4.57;;;;;;;;;;5015756;28;20106;-70
2022/04/14 12:13:23;;;;;;;7.38;4.43;;;;;;;;;;5024536;28;20034;-71
2022/04/14 12:16:03;;;;;;;5.70;5.00;;;;;;;;;;5013458;28;20046;-72
2022/04/14 12:18:29;;;;;;;9.77;5.20;;;;;;;;;;5024365;28;20049;-72
2022/04/14 12:20:55;;;;;;;10.55;5.15;;;;;;;;;;5005737;28;20133;-72
2022/04/14 12:23:22;;;;;;;12.80;5.72;;;;;;;;;;5021780;28;20065;-71
2022/04/14 12:25:48;;;;;;;9.38;4.97;;;;;;;;;;5021209;28;20132;-72
2022/04/14 12:28:14;;;;;;;8.13;5.00;;;;;;;;;;5020895;28;20065;-71
2022/04/14 12:30:43;;;;;;;8.80;6.47;;;;;;;;;;5023923;28;20042;-72
2022/04/14 12:33:09;;;;;;;13.30;7.30;;;;;;;;;;5022225;28;20128;-71
2022/04/14 12:35:37;;;;;;;13.38;7.88;;;;;;;;;;5022875;28;20045;-72
2022/04/14 12:38:12;;;;;;;12.10;8.15;;;;;;;;;;5020408;28;20128;-71
2022/04/14 12:40:38;;;;;;;11.65;7.45;;;;;;;;;;5017999;28;20054;-72
2022/04/14 12:43:06;;;;;;;10.85;7.25;;;;;;;;;;5021706;28;20102;-70
2022/04/14 12:45:32;;;;;;;;;;;;;;;;;;5015157;28;20038;-64
2022/04/14 12:47:58;;;;;;;10.38;7.20;;;;;;;;;;5005133;28;20297;-65
2022/04/14 12:50:24;;;;;;;12.10;6.97;;;;;;;;;;5006560;28;20082;-65
2022/04/14 12:52:56;;;;;;;11.07;6.28;;;;;;;;;;5022985;28;20044;-65
2022/04/14 12:55:24;;;;;;;11.68;7.32;;;;;;;;;;5020246;28;20038;-65
2022/04/14 12:57:52;;;;;;;14.57;7.25;;;;;;;;;;5022609;28;20065;-64
2022/04/14 13:00:18;;;;;;;15.27;7.18;;;;;;;;;;5023255;28;20049;-64
2022/04/14 13:02:59;;;;;;;16.90;7.60;;;;;;;;;;5021934;28;20100;-66
2022/04/14 13:05:27;;;;;;;14.88;7.38;;;;;;;;;;5023496;28;20053;-64
2022/04/14 13:07:54;;;;;;;19.42;7.55;;;;;;;;;;5021909;28;20056;-63
2022/04/14 13:10:36;;;;;;;13.68;7.93;;;;;;;;;;5019632;28;20077;-65
2022/04/14 13:13:03;;;;;;;16.63;9.15;;;;;;;;;;5022696;28;20062;-64
2022/04/14 13:15:29;;;;;;;15.57;8.90;;;;;;;;;;5015292;28;20409;-64
2022/04/14 13:17:56;;;;;;;16.42;9.13;;;;;;;;;;5026477;28;20033;-65
2022/04/14 13:20:23;;;;;;;13.75;8.82;;;;;;;;;;5021262;28;20097;-63
2022/04/14 13:22:52;;;;;;;14.53;9.27;;;;;;;;;;5017915;28;20106;-64
2022/04/14 13:25:19;;;;;;;16.70;8.90;;;;;;;;;;5020225;28;20050;-64
2022/04/14 13:27:45;;;;;;;15.15;8.70;;;;;;;;;;5021338;28;20050;-64
2022/04/14 13:30:11;;;;;;;10.73;8.50;;;;;;;;;;5021918;28;20046;-64
2022/04/14 13:32:37;;;;;;;13.75;7.57;;;;;;;;;;4992918;28;20082;-64
2022/04/14 13:35:03;;;;;;;17.65;8.45;;;;;;;;;;5001809;28;20086;-64
2022/04/14 13:37:32;;;;;;;17.55;8.40;;;;;;;;;;5002473;28;20084;-64
2022/04/14 13:40:01;;;;;;;13.80;7.43;;;;;;;;;;5001439;28;20494;-64
2022/04/14 13:42:27;;;;;;;16.85;8.70;;;;;;;;;;4984761;28;20543;-64
2022/04/14 13:44:53;;;;;;;13.73;7.82;;;;;;;;;;5004011;28;20042;-64
2022/04/14 13:47:19;;;;;;;13.38;7.93;;;;;;;;;;4988934;28;20053;-64
2022/04/14 13:49:46;;;;;;;14.90;7.82;;;;;;;;;;5006158;28;20050;-64
2022/04/14 13:52:12;;;;;;;10.48;6.95;;;;;;;;;;5006538;28;20088;-65
2022/04/14 13:54:38;;;;;;;11.82;6.78;;;;;;;;;;4988600;28;20078;-63
2022/04/14 13:57:04;;;;;;;11.43;6.70;;;;;;;;;;5005975;28;20070;-63
2022/04/14 13:59:30;;;;;;;17.52;7.40;;;;;;;;;;5005852;28;20047;-63
2022/04/14 14:01:57;;;;;;;12.43;6.57;;;;;;;;;;5005854;28;20615;-63
2022/04/14 14:04:23;;;;;;;11.13;6.18;;;;;;;;;;4988911;28;20098;-63
2022/04/14 14:06:49;;;;;;;14.15;6.53;;;;;;;;;;5005736;28;20046;-64
2022/04/14 14:09:17;;;;;;;9.00;4.95;;;;;;;;;;4998471;28;20070;-63
2022/04/14 14:11:43;;;;;;;12.20;6.38;;;;;;;;;;5004512;28;20045;-63
2022/04/14 14:14:09;;;;;;;8.57;5.22;;;;;;;;;;5005658;28;20101;-64
2022/04/14 14:16:35;;;;;;;14.27;5.07;;;;;;;;;;5003108;28;20050;-64
2022/04/14 14:19:01;;;;;;;7.65;4.15;;;;;;;;;;5004147;28;20042;-63
2022/04/14 14:21:27;;;;;;;8.57;4.30;;;;;;;;;;5009481;28;20271;-63
2022/04/14 14:23:54;;;;;;;8.10;3.95;;;;;;;;;;5005770;28;20148;-63
2022/04/14 14:26:20;;;;;;;11.97;3.27;;;;;;;;;;5006239;28;20074;-63
2022/04/14 14:28:46;;;;;;;5.82;3.13;;;;;;;;;;5005513;28;20682;-63